sensor_id;sensor_type;location;lat;lon;timestamp;temperature;humidity
75190;HTU21D;69198;44.694;37.790;2023-09-19T00:00:57;20.99;42.88
75190;HTU21D;69198;44.694;37.790;2023-09-19T00:01:58;20.92;43.03
75190;HTU21D;69198;44.694;37.790;2023-09-19T00:03:00;20.84;43.25
75190;HTU21D;69198;44.694;37.790;2023-09-19T00:04:01;20.79;43.39
75190;HTU21D;69198;44.694;37.790;2023-09-19T00:05:03;20.76;43.37
75190;HTU21D;69198;44.694;37.790;2023-09-19T00:06:05;20.76;43.32
75190;HTU21D;69198;44.694;37.790;2023-09-19T00:07:08;20.79;43.22
75190;HTU21D;69198;44.694;37.790;2023-09-19T00:08:12;20.78;43.37
75190;HTU21D;69198;44.694;37.790;2023-09-19T00:09:16;20.79;43.35
75190;HTU21D;69198;44.694;37.790;2023-09-19T00:10:17;20.79;43.31
75190;HTU21D;69198;44.694;37.790;2023-09-19T00:11:20;20.74;43.38
75190;HTU21D;69198;44.694;37.790;2023-09-19T00:12:21;20.72;43.48
75190;HTU21D;69198;44.694;37.790;2023-09-19T00:13:22;20.71;43.79
75190;HTU21D;69198;44.694;37.790;2023-09-19T00:14:25;20.78;43.83
75190;HTU21D;69198;44.694;37.790;2023-09-19T00:15:27;20.78;43.93
75190;HTU21D;69198;44.694;37.790;2023-09-19T00:16:31;20.73;44.18
75190;HTU21D;69198;44.694;37.790;2023-09-19T00:17:33;20.69;44.41
75190;HTU21D;69198;44.694;37.790;2023-09-19T00:18:35;20.68;44.60
75190;HTU21D;69198;44.694;37.790;2023-09-19T00:19:36;20.66;44.67
75190;HTU21D;69198;44.694;37.790;2023-09-19T00:20:43;20.65;44.60
75190;HTU21D;69198;44.694;37.790;2023-09-19T00:21:48;20.60;44.64
75190;HTU21D;69198;44.694;37.790;2023-09-19T00:22:50;20.54;44.77
75190;HTU21D;69198;44.694;37.790;2023-09-19T00:23:54;20.49;44.92
75190;HTU21D;69198;44.694;37.790;2023-09-19T00:24:55;20.44;45.06
75190;HTU21D;69198;44.694;37.790;2023-09-19T00:26:00;20.48;45.32
75190;HTU21D;69198;44.694;37.790;2023-09-19T00:27:01;20.59;45.45
75190;HTU21D;69198;44.694;37.790;2023-09-19T00:28:03;20.68;45.70
75190;HTU21D;69198;44.694;37.790;2023-09-19T00:29:05;20.83;46.54
75190;HTU21D;69198;44.694;37.790;2023-09-19T00:30:09;20.93;46.49
75190;HTU21D;69198;44.694;37.790;2023-09-19T00:31:20;21.04;46.36
75190;HTU21D;69198;44.694;37.790;2023-09-19T00:32:26;21.13;47.06
75190;HTU21D;69198;44.694;37.790;2023-09-19T00:33:32;21.18;46.98
75190;HTU21D;69198;44.694;37.790;2023-09-19T00:34:34;21.19;46.06
75190;HTU21D;69198;44.694;37.790;2023-09-19T00:35:36;21.23;45.49
75190;HTU21D;69198;44.694;37.790;2023-09-19T00:36:37;21.23;45.28
75190;HTU21D;69198;44.694;37.790;2023-09-19T00:37:43;21.23;45.15
75190;HTU21D;69198;44.694;37.790;2023-09-19T00:38:44;21.21;45.10
75190;HTU21D;69198;44.694;37.790;2023-09-19T00:39:46;21.23;45.31
75190;HTU21D;69198;44.694;37.790;2023-09-19T00:40:48;21.23;45.32
75190;HTU21D;69198;44.694;37.790;2023-09-19T00:41:50;21.25;45.13
75190;HTU21D;69198;44.694;37.790;2023-09-19T00:42:51;21.30;44.96
75190;HTU21D;69198;44.694;37.790;2023-09-19T00:43:53;21.34;45.54
75190;HTU21D;69198;44.694;37.790;2023-09-19T00:44:54;21.34;45.78
75190;HTU21D;69198;44.694;37.790;2023-09-19T00:45:56;21.35;45.56
75190;HTU21D;69198;44.694;37.790;2023-09-19T00:46:57;21.32;45.41
75190;HTU21D;69198;44.694;37.790;2023-09-19T00:48:01;21.22;45.42
75190;HTU21D;69198;44.694;37.790;2023-09-19T00:49:04;21.13;45.49
75190;HTU21D;69198;44.694;37.790;2023-09-19T00:50:08;21.13;45.31
75190;HTU21D;69198;44.694;37.790;2023-09-19T00:51:11;21.15;45.19
75190;HTU21D;69198;44.694;37.790;2023-09-19T00:52:12;21.17;45.53
75190;HTU21D;69198;44.694;37.790;2023-09-19T00:53:19;21.21;45.87
75190;HTU21D;69198;44.694;37.790;2023-09-19T00:54:21;21.21;45.96
75190;HTU21D;69198;44.694;37.790;2023-09-19T00:55:24;21.21;45.73
75190;HTU21D;69198;44.694;37.790;2023-09-19T00:56:25;21.24;45.90
75190;HTU21D;69198;44.694;37.790;2023-09-19T00:57:26;21.24;46.05
75190;HTU21D;69198;44.694;37.790;2023-09-19T00:58:27;21.19;45.98
75190;HTU21D;69198;44.694;37.790;2023-09-19T00:59:34;21.15;45.73
75190;HTU21D;69198;44.694;37.790;2023-09-19T01:00:37;21.13;45.43
75190;HTU21D;69198;44.694;37.790;2023-09-19T01:01:38;21.08;45.21
75190;HTU21D;69198;44.694;37.790;2023-09-19T01:02:43;21.05;45.06
75190;HTU21D;69198;44.694;37.790;2023-09-19T01:03:44;20.99;44.98
75190;HTU21D;69198;44.694;37.790;2023-09-19T01:04:47;20.94;45.10
75190;HTU21D;69198;44.694;37.790;2023-09-19T01:05:48;20.95;44.96
75190;HTU21D;69198;44.694;37.790;2023-09-19T01:06:49;20.98;44.94
75190;HTU21D;69198;44.694;37.790;2023-09-19T01:07:54;20.95;45.11
75190;HTU21D;69198;44.694;37.790;2023-09-19T01:08:56;21.01;45.55
75190;HTU21D;69198;44.694;37.790;2023-09-19T01:09:57;21.04;45.69
75190;HTU21D;69198;44.694;37.790;2023-09-19T01:11:16;21.06;45.48
75190;HTU21D;69198;44.694;37.790;2023-09-19T01:12:36;21.02;45.45
75190;HTU21D;69198;44.694;37.790;2023-09-19T01:15:06;21.01;45.76
75190;HTU21D;69198;44.694;37.790;2023-09-19T01:17:46;20.93;46.37
75190;HTU21D;69198;44.694;37.790;2023-09-19T01:19:07;20.86;46.37
75190;HTU21D;69198;44.694;37.790;2023-09-19T01:20:21;20.77;46.36
75190;HTU21D;69198;44.694;37.790;2023-09-19T01:21:30;20.65;46.48
75190;HTU21D;69198;44.694;37.790;2023-09-19T01:23:04;20.61;46.60
75190;HTU21D;69198;44.694;37.790;2023-09-19T01:27:50;20.56;47.09
75190;HTU21D;69198;44.694;37.790;2023-09-19T01:29:46;20.55;47.44
75190;HTU21D;69198;44.694;37.790;2023-09-19T01:30:27;20.58;47.63
75190;HTU21D;69198;44.694;37.790;2023-09-19T01:31:34;20.64;47.83
75190;HTU21D;69198;44.694;37.790;2023-09-19T01:32:38;20.72;47.92
75190;HTU21D;69198;44.694;37.790;2023-09-19T01:34:14;20.77;47.97
75190;HTU21D;69198;44.694;37.790;2023-09-19T01:35:15;20.75;47.89
75190;HTU21D;69198;44.694;37.790;2023-09-19T01:36:16;20.76;47.75
75190;HTU21D;69198;44.694;37.790;2023-09-19T01:37:17;20.78;47.73
75190;HTU21D;69198;44.694;37.790;2023-09-19T01:38:38;20.78;47.67
75190;HTU21D;69198;44.694;37.790;2023-09-19T01:39:41;20.74;47.65
75190;HTU21D;69198;44.694;37.790;2023-09-19T01:40:43;20.83;47.80
75190;HTU21D;69198;44.694;37.790;2023-09-19T01:42:02;20.89;47.68
75190;HTU21D;69198;44.694;37.790;2023-09-19T01:43:21;20.90;47.60
75190;HTU21D;69198;44.694;37.790;2023-09-19T01:44:31;20.86;47.66
75190;HTU21D;69198;44.694;37.790;2023-09-19T01:46:41;20.78;47.19
75190;HTU21D;69198;44.694;37.790;2023-09-19T01:47:51;20.73;46.99
75190;HTU21D;69198;44.694;37.790;2023-09-19T01:48:57;20.65;46.96
75190;HTU21D;69198;44.694;37.790;2023-09-19T01:51:33;20.68;47.56
75190;HTU21D;69198;44.694;37.790;2023-09-19T01:52:38;20.65;47.44
75190;HTU21D;69198;44.694;37.790;2023-09-19T01:54:00;20.61;47.19
75190;HTU21D;69198;44.694;37.790;2023-09-19T01:55:08;20.60;46.93
75190;HTU21D;69198;44.694;37.790;2023-09-19T01:56:14;20.57;46.70
75190;HTU21D;69198;44.694;37.790;2023-09-19T01:57:26;20.53;46.74
75190;HTU21D;69198;44.694;37.790;2023-09-19T01:58:41;20.48;46.63
75190;HTU21D;69198;44.694;37.790;2023-09-19T01:59:57;20.47;46.56
75190;HTU21D;69198;44.694;37.790;2023-09-19T02:01:01;20.44;46.59
75190;HTU21D;69198;44.694;37.790;2023-09-19T02:02:03;20.43;46.73
75190;HTU21D;69198;44.694;37.790;2023-09-19T02:03:05;20.44;46.75
75190;HTU21D;69198;44.694;37.790;2023-09-19T02:04:08;20.45;46.54
75190;HTU21D;69198;44.694;37.790;2023-09-19T02:05:10;20.48;46.34
75190;HTU21D;69198;44.694;37.790;2023-09-19T02:06:18;20.50;46.33
75190;HTU21D;69198;44.694;37.790;2023-09-19T02:07:19;20.54;46.61
75190;HTU21D;69198;44.694;37.790;2023-09-19T02:08:22;20.58;46.84
75190;HTU21D;69198;44.694;37.790;2023-09-19T02:09:27;20.60;46.93
75190;HTU21D;69198;44.694;37.790;2023-09-19T02:10:28;20.60;46.96
75190;HTU21D;69198;44.694;37.790;2023-09-19T02:11:28;20.60;46.58
75190;HTU21D;69198;44.694;37.790;2023-09-19T02:12:30;20.59;46.35
75190;HTU21D;69198;44.694;37.790;2023-09-19T02:13:31;20.57;46.58
75190;HTU21D;69198;44.694;37.790;2023-09-19T02:14:32;20.56;46.73
75190;HTU21D;69198;44.694;37.790;2023-09-19T02:15:34;20.58;46.42
75190;HTU21D;69198;44.694;37.790;2023-09-19T02:16:36;20.58;46.14
75190;HTU21D;69198;44.694;37.790;2023-09-19T02:17:38;20.55;46.14
75190;HTU21D;69198;44.694;37.790;2023-09-19T02:18:39;20.55;46.12
75190;HTU21D;69198;44.694;37.790;2023-09-19T02:19:40;20.54;46.08
75190;HTU21D;69198;44.694;37.790;2023-09-19T02:20:41;20.54;45.99
75190;HTU21D;69198;44.694;37.790;2023-09-19T02:21:43;20.54;46.13
75190;HTU21D;69198;44.694;37.790;2023-09-19T02:22:44;20.55;45.95
75190;HTU21D;69198;44.694;37.790;2023-09-19T02:23:45;20.56;45.77
75190;HTU21D;69198;44.694;37.790;2023-09-19T02:24:48;20.55;45.67
75190;HTU21D;69198;44.694;37.790;2023-09-19T02:25:53;20.55;45.53
75190;HTU21D;69198;44.694;37.790;2023-09-19T02:26:55;20.54;45.46
75190;HTU21D;69198;44.694;37.790;2023-09-19T02:27:57;20.55;45.51
75190;HTU21D;69198;44.694;37.790;2023-09-19T02:29:03;20.54;45.37
75190;HTU21D;69198;44.694;37.790;2023-09-19T02:30:05;20.55;45.17
75190;HTU21D;69198;44.694;37.790;2023-09-19T02:31:07;20.57;45.07
75190;HTU21D;69198;44.694;37.790;2023-09-19T02:32:08;20.57;45.03
75190;HTU21D;69198;44.694;37.790;2023-09-19T02:33:11;20.57;45.11
75190;HTU21D;69198;44.694;37.790;2023-09-19T02:34:12;20.54;45.25
75190;HTU21D;69198;44.694;37.790;2023-09-19T02:35:14;20.51;45.34
75190;HTU21D;69198;44.694;37.790;2023-09-19T02:36:15;20.50;45.43
75190;HTU21D;69198;44.694;37.790;2023-09-19T02:37:18;20.49;45.45
75190;HTU21D;69198;44.694;37.790;2023-09-19T02:38:20;20.48;45.41
75190;HTU21D;69198;44.694;37.790;2023-09-19T02:39:22;20.46;45.34
75190;HTU21D;69198;44.694;37.790;2023-09-19T02:40:24;20.45;45.42
75190;HTU21D;69198;44.694;37.790;2023-09-19T02:41:27;20.44;45.57
75190;HTU21D;69198;44.694;37.790;2023-09-19T02:42:30;20.41;45.67
75190;HTU21D;69198;44.694;37.790;2023-09-19T02:43:31;20.36;45.83
75190;HTU21D;69198;44.694;37.790;2023-09-19T02:44:32;20.36;45.86
75190;HTU21D;69198;44.694;37.790;2023-09-19T02:45:33;20.40;45.77
75190;HTU21D;69198;44.694;37.790;2023-09-19T02:46:34;20.45;46.09
75190;HTU21D;69198;44.694;37.790;2023-09-19T02:47:40;20.48;46.44
75190;HTU21D;69198;44.694;37.790;2023-09-19T02:48:41;20.48;46.68
75190;HTU21D;69198;44.694;37.790;2023-09-19T02:49:42;20.50;46.75
75190;HTU21D;69198;44.694;37.790;2023-09-19T02:50:44;20.51;46.99
75190;HTU21D;69198;44.694;37.790;2023-09-19T02:51:46;20.59;47.34
75190;HTU21D;69198;44.694;37.790;2023-09-19T02:52:48;20.65;47.32
75190;HTU21D;69198;44.694;37.790;2023-09-19T02:53:50;20.71;47.75
75190;HTU21D;69198;44.694;37.790;2023-09-19T02:54:53;20.75;47.84
75190;HTU21D;69198;44.694;37.790;2023-09-19T02:55:54;20.76;47.80
75190;HTU21D;69198;44.694;37.790;2023-09-19T02:56:55;20.77;47.63
75190;HTU21D;69198;44.694;37.790;2023-09-19T02:57:57;20.80;47.63
75190;HTU21D;69198;44.694;37.790;2023-09-19T02:58:58;20.87;47.87
75190;HTU21D;69198;44.694;37.790;2023-09-19T03:00:01;20.89;47.76
75190;HTU21D;69198;44.694;37.790;2023-09-19T03:01:10;20.90;47.66
75190;HTU21D;69198;44.694;37.790;2023-09-19T03:02:13;20.94;47.42
75190;HTU21D;69198;44.694;37.790;2023-09-19T03:03:14;21.03;47.28
75190;HTU21D;69198;44.694;37.790;2023-09-19T03:04:17;21.08;46.92
75190;HTU21D;69198;44.694;37.790;2023-09-19T03:05:23;21.13;46.86
75190;HTU21D;69198;44.694;37.790;2023-09-19T03:06:25;21.13;47.06
75190;HTU21D;69198;44.694;37.790;2023-09-19T03:07:26;21.13;46.87
75190;HTU21D;69198;44.694;37.790;2023-09-19T03:08:27;21.14;46.85
75190;HTU21D;69198;44.694;37.790;2023-09-19T03:09:28;21.15;46.71
75190;HTU21D;69198;44.694;37.790;2023-09-19T03:10:29;21.16;46.28
75190;HTU21D;69198;44.694;37.790;2023-09-19T03:11:32;21.11;46.41
75190;HTU21D;69198;44.694;37.790;2023-09-19T03:12:34;21.10;46.53
75190;HTU21D;69198;44.694;37.790;2023-09-19T03:13:35;21.14;46.72
75190;HTU21D;69198;44.694;37.790;2023-09-19T03:14:39;21.16;46.65
75190;HTU21D;69198;44.694;37.790;2023-09-19T03:15:43;21.20;46.92
75190;HTU21D;69198;44.694;37.790;2023-09-19T03:16:54;21.22;46.91
75190;HTU21D;69198;44.694;37.790;2023-09-19T03:17:55;21.24;46.96
75190;HTU21D;69198;44.694;37.790;2023-09-19T03:18:58;21.25;46.81
75190;HTU21D;69198;44.694;37.790;2023-09-19T03:20:03;21.23;46.73
75190;HTU21D;69198;44.694;37.790;2023-09-19T03:21:09;21.22;47.25
75190;HTU21D;69198;44.694;37.790;2023-09-19T03:22:10;21.29;46.82
75190;HTU21D;69198;44.694;37.790;2023-09-19T03:23:11;21.31;46.86
75190;HTU21D;69198;44.694;37.790;2023-09-19T03:24:14;21.35;46.64
75190;HTU21D;69198;44.694;37.790;2023-09-19T03:25:15;21.37;46.09
75190;HTU21D;69198;44.694;37.790;2023-09-19T03:26:19;21.44;45.83
75190;HTU21D;69198;44.694;37.790;2023-09-19T03:27:22;21.44;46.12
75190;HTU21D;69198;44.694;37.790;2023-09-19T03:28:24;21.40;46.40
75190;HTU21D;69198;44.694;37.790;2023-09-19T03:29:26;21.42;46.38
75190;HTU21D;69198;44.694;37.790;2023-09-19T03:30:28;21.40;46.52
75190;HTU21D;69198;44.694;37.790;2023-09-19T03:31:29;21.57;46.10
75190;HTU21D;69198;44.694;37.790;2023-09-19T03:32:31;21.79;45.92
75190;HTU21D;69198;44.694;37.790;2023-09-19T03:33:32;22.06;45.55
75190;HTU21D;69198;44.694;37.790;2023-09-19T03:34:36;22.34;45.30
75190;HTU21D;69198;44.694;37.790;2023-09-19T03:35:39;22.55;45.03
75190;HTU21D;69198;44.694;37.790;2023-09-19T03:36:41;22.76;44.88
75190;HTU21D;69198;44.694;37.790;2023-09-19T03:37:42;22.91;43.90
75190;HTU21D;69198;44.694;37.790;2023-09-19T03:38:43;23.06;43.62
75190;HTU21D;69198;44.694;37.790;2023-09-19T03:39:44;23.22;43.45
75190;HTU21D;69198;44.694;37.790;2023-09-19T03:40:46;23.40;43.24
75190;HTU21D;69198;44.694;37.790;2023-09-19T03:41:47;23.55;42.77
75190;HTU21D;69198;44.694;37.790;2023-09-19T03:42:49;23.69;42.18
75190;HTU21D;69198;44.694;37.790;2023-09-19T03:43:50;23.76;41.79
75190;HTU21D;69198;44.694;37.790;2023-09-19T03:44:51;23.84;41.28
75190;HTU21D;69198;44.694;37.790;2023-09-19T03:45:56;23.97;41.19
75190;HTU21D;69198;44.694;37.790;2023-09-19T03:46:58;24.15;40.63
75190;HTU21D;69198;44.694;37.790;2023-09-19T03:48:00;24.34;40.18
75190;HTU21D;69198;44.694;37.790;2023-09-19T03:49:01;24.53;39.88
75190;HTU21D;69198;44.694;37.790;2023-09-19T03:50:02;24.63;39.47
75190;HTU21D;69198;44.694;37.790;2023-09-19T03:51:04;24.69;39.58
75190;HTU21D;69198;44.694;37.790;2023-09-19T03:52:05;24.77;39.36
75190;HTU21D;69198;44.694;37.790;2023-09-19T03:53:07;24.91;39.23
75190;HTU21D;69198;44.694;37.790;2023-09-19T03:54:08;25.12;38.46
75190;HTU21D;69198;44.694;37.790;2023-09-19T03:55:09;25.21;37.80
75190;HTU21D;69198;44.694;37.790;2023-09-19T03:56:12;25.30;37.94
75190;HTU21D;69198;44.694;37.790;2023-09-19T03:57:13;25.45;37.58
75190;HTU21D;69198;44.694;37.790;2023-09-19T03:58:16;25.53;37.43
75190;HTU21D;69198;44.694;37.790;2023-09-19T03:59:17;25.63;36.94
75190;HTU21D;69198;44.694;37.790;2023-09-19T04:00:19;25.77;36.50
75190;HTU21D;69198;44.694;37.790;2023-09-19T04:01:22;25.84;36.12
75190;HTU21D;69198;44.694;37.790;2023-09-19T04:02:23;25.91;35.93
75190;HTU21D;69198;44.694;37.790;2023-09-19T04:03:25;26.01;35.63
75190;HTU21D;69198;44.694;37.790;2023-09-19T04:04:35;26.16;35.57
75190;HTU21D;69198;44.694;37.790;2023-09-19T04:05:36;26.31;35.38
75190;HTU21D;69198;44.694;37.790;2023-09-19T04:06:37;26.40;34.70
75190;HTU21D;69198;44.694;37.790;2023-09-19T04:07:38;26.47;34.80
75190;HTU21D;69198;44.694;37.790;2023-09-19T04:08:39;26.55;34.79
75190;HTU21D;69198;44.694;37.790;2023-09-19T04:09:41;26.73;34.42
75190;HTU21D;69198;44.694;37.790;2023-09-19T04:10:43;26.90;33.86
75190;HTU21D;69198;44.694;37.790;2023-09-19T04:11:44;27.02;33.51
75190;HTU21D;69198;44.694;37.790;2023-09-19T04:12:55;27.25;33.53
75190;HTU21D;69198;44.694;37.790;2023-09-19T04:13:57;27.40;33.44
75190;HTU21D;69198;44.694;37.790;2023-09-19T04:14:58;27.53;33.09
75190;HTU21D;69198;44.694;37.790;2023-09-19T04:15:59;27.70;32.51
75190;HTU21D;69198;44.694;37.790;2023-09-19T04:17:00;27.94;31.97
75190;HTU21D;69198;44.694;37.790;2023-09-19T04:18:01;28.18;31.41
75190;HTU21D;69198;44.694;37.790;2023-09-19T04:19:04;28.32;31.04
75190;HTU21D;69198;44.694;37.790;2023-09-19T04:20:06;28.48;30.69
75190;HTU21D;69198;44.694;37.790;2023-09-19T04:21:08;28.63;30.50
75190;HTU21D;69198;44.694;37.790;2023-09-19T04:22:09;28.77;30.18
75190;HTU21D;69198;44.694;37.790;2023-09-19T04:23:12;28.86;29.52
75190;HTU21D;69198;44.694;37.790;2023-09-19T04:24:13;28.98;29.20
75190;HTU21D;69198;44.694;37.790;2023-09-19T04:25:14;29.15;28.93
75190;HTU21D;69198;44.694;37.790;2023-09-19T04:26:15;29.34;28.63
75190;HTU21D;69198;44.694;37.790;2023-09-19T04:27:17;29.51;28.18
75190;HTU21D;69198;44.694;37.790;2023-09-19T04:28:19;29.57;28.23
75190;HTU21D;69198;44.694;37.790;2023-09-19T04:29:20;29.57;28.48
75190;HTU21D;69198;44.694;37.790;2023-09-19T04:30:21;29.54;28.11
75190;HTU21D;69198;44.694;37.790;2023-09-19T04:31:22;29.41;28.13
75190;HTU21D;69198;44.694;37.790;2023-09-19T04:32:23;29.59;28.04
75190;HTU21D;69198;44.694;37.790;2023-09-19T04:33:25;30.07;27.47
75190;HTU21D;69198;44.694;37.790;2023-09-19T04:34:27;30.40;26.99
75190;HTU21D;69198;44.694;37.790;2023-09-19T04:35:28;30.74;26.57
75190;HTU21D;69198;44.694;37.790;2023-09-19T04:36:32;31.04;26.36
75190;HTU21D;69198;44.694;37.790;2023-09-19T04:37:33;31.39;25.81
75190;HTU21D;69198;44.694;37.790;2023-09-19T04:38:34;31.71;25.51
75190;HTU21D;69198;44.694;37.790;2023-09-19T04:39:35;31.81;25.01
75190;HTU21D;69198;44.694;37.790;2023-09-19T04:40:36;31.94;24.87
75190;HTU21D;69198;44.694;37.790;2023-09-19T04:41:39;32.25;24.43
75190;HTU21D;69198;44.694;37.790;2023-09-19T04:42:41;32.60;23.93
75190;HTU21D;69198;44.694;37.790;2023-09-19T04:43:42;32.93;23.40
75190;HTU21D;69198;44.694;37.790;2023-09-19T04:44:43;33.19;22.84
75190;HTU21D;69198;44.694;37.790;2023-09-19T04:45:44;33.44;22.47
75190;HTU21D;69198;44.694;37.790;2023-09-19T04:46:46;33.73;22.08
75190;HTU21D;69198;44.694;37.790;2023-09-19T04:47:47;33.80;21.92
75190;HTU21D;69198;44.694;37.790;2023-09-19T04:48:48;33.90;21.53
75190;HTU21D;69198;44.694;37.790;2023-09-19T04:49:50;33.82;21.14
75190;HTU21D;69198;44.694;37.790;2023-09-19T04:50:52;33.49;21.61
75190;HTU21D;69198;44.694;37.790;2023-09-19T04:51:53;32.83;21.84
75190;HTU21D;69198;44.694;37.790;2023-09-19T04:52:54;32.01;22.45
75190;HTU21D;69198;44.694;37.790;2023-09-19T04:53:55;31.30;23.04
75190;HTU21D;69198;44.694;37.790;2023-09-19T04:54:56;30.67;24.15
75190;HTU21D;69198;44.694;37.790;2023-09-19T04:55:57;30.35;24.62
75190;HTU21D;69198;44.694;37.790;2023-09-19T04:56:58;30.13;25.40
75190;HTU21D;69198;44.694;37.790;2023-09-19T04:57:59;30.06;25.50
75190;HTU21D;69198;44.694;37.790;2023-09-19T04:59:00;29.88;24.69
75190;HTU21D;69198;44.694;37.790;2023-09-19T05:00:02;29.66;25.51
75190;HTU21D;69198;44.694;37.790;2023-09-19T05:01:07;29.60;25.78
75190;HTU21D;69198;44.694;37.790;2023-09-19T05:02:12;29.57;25.84
75190;HTU21D;69198;44.694;37.790;2023-09-19T05:03:14;29.48;25.17
75190;HTU21D;69198;44.694;37.790;2023-09-19T05:04:15;29.28;26.16
75190;HTU21D;69198;44.694;37.790;2023-09-19T05:05:17;29.29;26.84
75190;HTU21D;69198;44.694;37.790;2023-09-19T05:06:21;29.41;26.20
75190;HTU21D;69198;44.694;37.790;2023-09-19T05:07:22;29.36;26.70
75190;HTU21D;69198;44.694;37.790;2023-09-19T05:08:27;29.37;26.49
75190;HTU21D;69198;44.694;37.790;2023-09-19T05:09:28;29.33;26.02
75190;HTU21D;69198;44.694;37.790;2023-09-19T05:10:29;29.31;26.04
75190;HTU21D;69198;44.694;37.790;2023-09-19T05:11:30;29.27;26.25
75190;HTU21D;69198;44.694;37.790;2023-09-19T05:12:33;29.33;26.26
75190;HTU21D;69198;44.694;37.790;2023-09-19T05:13:34;29.46;26.20
75190;HTU21D;69198;44.694;37.790;2023-09-19T05:14:35;29.46;26.14
75190;HTU21D;69198;44.694;37.790;2023-09-19T05:15:36;29.32;26.57
75190;HTU21D;69198;44.694;37.790;2023-09-19T05:16:37;29.16;26.67
75190;HTU21D;69198;44.694;37.790;2023-09-19T05:17:38;29.16;26.89
75190;HTU21D;69198;44.694;37.790;2023-09-19T05:18:40;29.12;26.52
75190;HTU21D;69198;44.694;37.790;2023-09-19T05:19:41;29.09;27.46
75190;HTU21D;69198;44.694;37.790;2023-09-19T05:20:42;29.18;27.43
75190;HTU21D;69198;44.694;37.790;2023-09-19T05:21:44;29.31;27.21
75190;HTU21D;69198;44.694;37.790;2023-09-19T05:22:45;29.44;26.52
75190;HTU21D;69198;44.694;37.790;2023-09-19T05:23:46;29.59;26.36
75190;HTU21D;69198;44.694;37.790;2023-09-19T05:24:48;29.60;26.00
75190;HTU21D;69198;44.694;37.790;2023-09-19T05:25:49;29.54;26.39
75190;HTU21D;69198;44.694;37.790;2023-09-19T05:26:50;29.50;27.05
75190;HTU21D;69198;44.694;37.790;2023-09-19T05:27:53;29.44;27.16
75190;HTU21D;69198;44.694;37.790;2023-09-19T05:28:54;29.44;27.28
75190;HTU21D;69198;44.694;37.790;2023-09-19T05:29:55;29.53;27.74
75190;HTU21D;69198;44.694;37.790;2023-09-19T05:30:56;29.77;27.09
75190;HTU21D;69198;44.694;37.790;2023-09-19T05:31:59;29.89;26.46
75190;HTU21D;69198;44.694;37.790;2023-09-19T05:33:00;30.01;26.49
75190;HTU21D;69198;44.694;37.790;2023-09-19T05:34:02;30.15;26.94
75190;HTU21D;69198;44.694;37.790;2023-09-19T05:35:04;30.07;26.26
75190;HTU21D;69198;44.694;37.790;2023-09-19T05:36:08;29.86;26.07
75190;HTU21D;69198;44.694;37.790;2023-09-19T05:37:12;29.83;25.61
75190;HTU21D;69198;44.694;37.790;2023-09-19T05:38:14;29.76;26.29
75190;HTU21D;69198;44.694;37.790;2023-09-19T05:39:19;29.79;26.55
75190;HTU21D;69198;44.694;37.790;2023-09-19T05:40:21;29.79;26.48
75190;HTU21D;69198;44.694;37.790;2023-09-19T05:41:22;29.89;26.48
75190;HTU21D;69198;44.694;37.790;2023-09-19T05:42:24;30.06;26.25
75190;HTU21D;69198;44.694;37.790;2023-09-19T05:43:25;30.06;26.14
75190;HTU21D;69198;44.694;37.790;2023-09-19T05:44:26;29.94;26.17
75190;HTU21D;69198;44.694;37.790;2023-09-19T05:45:27;29.90;26.08
75190;HTU21D;69198;44.694;37.790;2023-09-19T05:46:28;29.93;26.57
75190;HTU21D;69198;44.694;37.790;2023-09-19T05:47:30;30.09;25.99
75190;HTU21D;69198;44.694;37.790;2023-09-19T05:48:31;30.07;25.30
75190;HTU21D;69198;44.694;37.790;2023-09-19T05:49:33;30.02;25.31
75190;HTU21D;69198;44.694;37.790;2023-09-19T05:50:35;30.05;25.76
75190;HTU21D;69198;44.694;37.790;2023-09-19T05:51:37;29.87;26.30
75190;HTU21D;69198;44.694;37.790;2023-09-19T05:52:38;29.79;26.88
75190;HTU21D;69198;44.694;37.790;2023-09-19T05:53:39;29.70;26.62
75190;HTU21D;69198;44.694;37.790;2023-09-19T05:54:40;29.51;26.84
75190;HTU21D;69198;44.694;37.790;2023-09-19T05:55:43;29.35;26.89
75190;HTU21D;69198;44.694;37.790;2023-09-19T05:56:44;29.22;27.17
75190;HTU21D;69198;44.694;37.790;2023-09-19T05:57:54;29.18;27.29
75190;HTU21D;69198;44.694;37.790;2023-09-19T05:58:55;29.17;27.58
75190;HTU21D;69198;44.694;37.790;2023-09-19T05:59:56;29.23;27.09
75190;HTU21D;69198;44.694;37.790;2023-09-19T06:00:57;29.39;27.01
75190;HTU21D;69198;44.694;37.790;2023-09-19T06:01:58;29.48;27.05
75190;HTU21D;69198;44.694;37.790;2023-09-19T06:03:00;29.47;26.26
75190;HTU21D;69198;44.694;37.790;2023-09-19T06:04:01;29.58;26.03
75190;HTU21D;69198;44.694;37.790;2023-09-19T06:05:02;29.67;26.19
75190;HTU21D;69198;44.694;37.790;2023-09-19T06:06:03;29.63;25.81
75190;HTU21D;69198;44.694;37.790;2023-09-19T06:07:07;29.62;26.94
75190;HTU21D;69198;44.694;37.790;2023-09-19T06:08:08;29.65;25.76
75190;HTU21D;69198;44.694;37.790;2023-09-19T06:09:09;29.45;26.39
75190;HTU21D;69198;44.694;37.790;2023-09-19T06:10:11;29.38;25.78
75190;HTU21D;69198;44.694;37.790;2023-09-19T06:11:12;29.31;26.14
75190;HTU21D;69198;44.694;37.790;2023-09-19T06:12:13;29.27;25.70
75190;HTU21D;69198;44.694;37.790;2023-09-19T06:13:18;29.27;26.15
75190;HTU21D;69198;44.694;37.790;2023-09-19T06:14:20;29.22;25.32
75190;HTU21D;69198;44.694;37.790;2023-09-19T06:15:21;29.12;25.75
75190;HTU21D;69198;44.694;37.790;2023-09-19T06:16:25;29.23;25.82
75190;HTU21D;69198;44.694;37.790;2023-09-19T06:17:26;29.15;25.66
75190;HTU21D;69198;44.694;37.790;2023-09-19T06:18:29;29.14;26.51
75190;HTU21D;69198;44.694;37.790;2023-09-19T06:19:34;29.27;26.57
75190;HTU21D;69198;44.694;37.790;2023-09-19T06:20:35;29.34;26.20
75190;HTU21D;69198;44.694;37.790;2023-09-19T06:21:36;29.31;26.75
75190;HTU21D;69198;44.694;37.790;2023-09-19T06:22:39;29.33;26.55
75190;HTU21D;69198;44.694;37.790;2023-09-19T06:23:42;29.30;26.73
75190;HTU21D;69198;44.694;37.790;2023-09-19T06:24:43;29.29;26.41
75190;HTU21D;69198;44.694;37.790;2023-09-19T06:25:44;29.30;26.39
75190;HTU21D;69198;44.694;37.790;2023-09-19T06:26:45;29.29;26.49
75190;HTU21D;69198;44.694;37.790;2023-09-19T06:27:50;29.35;26.61
75190;HTU21D;69198;44.694;37.790;2023-09-19T06:28:54;29.39;26.13
75190;HTU21D;69198;44.694;37.790;2023-09-19T06:29:56;29.38;26.50
75190;HTU21D;69198;44.694;37.790;2023-09-19T06:30:57;29.39;26.26
75190;HTU21D;69198;44.694;37.790;2023-09-19T06:31:58;29.48;25.91
75190;HTU21D;69198;44.694;37.790;2023-09-19T06:33:00;29.46;25.94
75190;HTU21D;69198;44.694;37.790;2023-09-19T06:34:04;29.37;25.45
75190;HTU21D;69198;44.694;37.790;2023-09-19T06:35:06;29.24;26.90
75190;HTU21D;69198;44.694;37.790;2023-09-19T06:36:11;29.30;27.01